sensor_id;sensor_type;location;lat;lon;timestamp;temperature;humidity
5647;DHT22;2845;48.626;9.362;2024-02-16T00:02:34;7.50;99.90
5647;DHT22;2845;48.626;9.362;2024-02-16T00:05:08;7.40;99.90
5647;DHT22;2845;48.626;9.362;2024-02-16T00:07:45;7.40;99.90
5647;DHT22;2845;48.626;9.362;2024-02-16T00:10:21;7.40;99.90
5647;DHT22;2845;48.626;9.362;2024-02-16T00:12:55;7.30;99.90
5647;DHT22;2845;48.626;9.362;2024-02-16T00:15:29;7.40;99.90
5647;DHT22;2845;48.626;9.362;2024-02-16T00:18:03;7.30;99.90
5647;DHT22;2845;48.626;9.362;2024-02-16T00:20:38;7.40;99.90
5647;DHT22;2845;48.626;9.362;2024-02-16T00:23:13;7.40;99.90
5647;DHT22;2845;48.626;9.362;2024-02-16T00:25:48;7.40;99.90
5647;DHT22;2845;48.626;9.362;2024-02-16T00:28:22;8.70;99.90
5647;DHT22;2845;48.626;9.362;2024-02-16T00:30:56;7.40;99.90
5647;DHT22;2845;48.626;9.362;2024-02-16T00:33:30;7.30;99.90
5647;DHT22;2845;48.626;9.362;2024-02-16T00:36:04;7.30;99.90
5647;DHT22;2845;48.626;9.362;2024-02-16T00:38:40;7.30;99.90
5647;DHT22;2845;48.626;9.362;2024-02-16T00:41:19;7.30;99.90
5647;DHT22;2845;48.626;9.362;2024-02-16T00:43:53;7.30;99.90
5647;DHT22;2845;48.626;9.362;2024-02-16T00:46:27;7.30;99.90
5647;DHT22;2845;48.626;9.362;2024-02-16T00:49:01;7.20;99.90
5647;DHT22;2845;48.626;9.362;2024-02-16T00:51:36;7.20;99.90
5647;DHT22;2845;48.626;9.362;2024-02-16T00:54:11;7.20;99.90
5647;DHT22;2845;48.626;9.362;2024-02-16T00:56:46;7.20;99.90
5647;DHT22;2845;48.626;9.362;2024-02-16T00:59:20;7.20;99.90
5647;DHT22;2845;48.626;9.362;2024-02-16T01:01:54;7.10;99.90
5647;DHT22;2845;48.626;9.362;2024-02-16T01:04:28;7.20;99.90
5647;DHT22;2845;48.626;9.362;2024-02-16T01:07:03;7.10;99.90
5647;DHT22;2845;48.626;9.362;2024-02-16T01:09:38;7.30;99.90
5647;DHT22;2845;48.626;9.362;2024-02-16T01:12:12;7.30;99.90
5647;DHT22;2845;48.626;9.362;2024-02-16T01:14:46;7.30;99.90
5647;DHT22;2845;48.626;9.362;2024-02-16T01:17:20;7.30;99.90
5647;DHT22;2845;48.626;9.362;2024-02-16T01:19:55;7.30;99.90
5647;DHT22;2845;48.626;9.362;2024-02-16T01:22:30;7.30;99.90
5647;DHT22;2845;48.626;9.362;2024-02-16T01:25:06;7.30;99.90
5647;DHT22;2845;48.626;9.362;2024-02-16T01:27:41;7.30;99.90
5647;DHT22;2845;48.626;9.362;2024-02-16T01:30:15;7.40;99.90
5647;DHT22;2845;48.626;9.362;2024-02-16T01:32:51;7.40;99.90
5647;DHT22;2845;48.626;9.362;2024-02-16T01:35:26;7.40;99.90
5647;DHT22;2845;48.626;9.362;2024-02-16T01:38:00;8.30;99.90
5647;DHT22;2845;48.626;9.362;2024-02-16T01:40:36;7.40;99.90
5647;DHT22;2845;48.626;9.362;2024-02-16T01:43:10;7.40;99.90
5647;DHT22;2845;48.626;9.362;2024-02-16T01:45:44;7.40;99.90
5647;DHT22;2845;48.626;9.362;2024-02-16T01:48:18;7.50;99.90
5647;DHT22;2845;48.626;9.362;2024-02-16T01:50:53;7.50;99.90
5647;DHT22;2845;48.626;9.362;2024-02-16T01:53:28;7.50;99.90
5647;DHT22;2845;48.626;9.362;2024-02-16T01:56:04;7.50;99.90
5647;DHT22;2845;48.626;9.362;2024-02-16T01:58:39;7.50;99.90
5647;DHT22;2845;48.626;9.362;2024-02-16T02:01:13;7.50;99.90
5647;DHT22;2845;48.626;9.362;2024-02-16T02:03:47;7.50;99.90
5647;DHT22;2845;48.626;9.362;2024-02-16T02:06:21;7.50;99.90
5647;DHT22;2845;48.626;9.362;2024-02-16T02:09:13;7.60;99.90
5647;DHT22;2845;48.626;9.362;2024-02-16T02:11:49;7.60;99.90
5647;DHT22;2845;48.626;9.362;2024-02-16T02:14:24;7.60;99.90
5647;DHT22;2845;48.626;9.362;2024-02-16T02:16:58;7.60;99.90
5647;DHT22;2845;48.626;9.362;2024-02-16T02:19:33;7.60;99.90
5647;DHT22;2845;48.626;9.362;2024-02-16T02:22:13;7.60;99.90
5647;DHT22;2845;48.626;9.362;2024-02-16T02:24:48;7.60;99.90
5647;DHT22;2845;48.626;9.362;2024-02-16T02:27:22;7.60;99.90
5647;DHT22;2845;48.626;9.362;2024-02-16T02:29:56;7.60;99.90
5647;DHT22;2845;48.626;9.362;2024-02-16T02:32:31;7.60;99.90
5647;DHT22;2845;48.626;9.362;2024-02-16T02:35:06;7.60;99.90
5647;DHT22;2845;48.626;9.362;2024-02-16T02:37:43;7.60;99.90
5647;DHT22;2845;48.626;9.362;2024-02-16T02:40:18;7.60;99.90
5647;DHT22;2845;48.626;9.362;2024-02-16T02:42:52;7.60;99.90
5647;DHT22;2845;48.626;9.362;2024-02-16T02:45:26;7.60;99.90
5647;DHT22;2845;48.626;9.362;2024-02-16T02:48:00;7.60;99.90
5647;DHT22;2845;48.626;9.362;2024-02-16T02:50:35;7.60;99.90
5647;DHT22;2845;48.626;9.362;2024-02-16T02:53:10;7.60;99.90
5647;DHT22;2845;48.626;9.362;2024-02-16T02:55:44;7.70;99.90
5647;DHT22;2845;48.626;9.362;2024-02-16T02:58:19;7.70;99.90
5647;DHT22;2845;48.626;9.362;2024-02-16T03:00:53;7.60;99.90
5647;DHT22;2845;48.626;9.362;2024-02-16T03:03:27;7.60;99.90
5647;DHT22;2845;48.626;9.362;2024-02-16T03:06:02;7.70;99.90
5647;DHT22;2845;48.626;9.362;2024-02-16T03:08:38;7.70;99.90
5647;DHT22;2845;48.626;9.362;2024-02-16T03:11:12;7.70;99.90
5647;DHT22;2845;48.626;9.362;2024-02-16T03:13:46;7.70;99.90
5647;DHT22;2845;48.626;9.362;2024-02-16T03:16:21;7.70;99.90
5647;DHT22;2845;48.626;9.362;2024-02-16T03:18:55;7.80;99.90
5647;DHT22;2845;48.626;9.362;2024-02-16T03:21:30;7.80;99.90
5647;DHT22;2845;48.626;9.362;2024-02-16T03:24:07;7.70;99.90
5647;DHT22;2845;48.626;9.362;2024-02-16T03:26:41;7.70;99.90
5647;DHT22;2845;48.626;9.362;2024-02-16T03:29:15;7.70;99.90
5647;DHT22;2845;48.626;9.362;2024-02-16T03:31:50;7.70;99.90
5647;DHT22;2845;48.626;9.362;2024-02-16T03:34:24;7.60;99.90
5647;DHT22;2845;48.626;9.362;2024-02-16T03:36:59;7.70;99.90
5647;DHT22;2845;48.626;9.362;2024-02-16T03:39:34;7.70;99.90
5647;DHT22;2845;48.626;9.362;2024-02-16T03:42:08;7.60;99.90
5647;DHT22;2845;48.626;9.362;2024-02-16T03:44:43;7.60;99.90
5647;DHT22;2845;48.626;9.362;2024-02-16T03:47:17;7.60;99.90
5647;DHT22;2845;48.626;9.362;2024-02-16T03:49:52;7.60;99.90
5647;DHT22;2845;48.626;9.362;2024-02-16T03:52:26;7.60;99.90
5647;DHT22;2845;48.626;9.362;2024-02-16T03:55:01;7.60;99.90
5647;DHT22;2845;48.626;9.362;2024-02-16T03:57:36;7.60;99.90
5647;DHT22;2845;48.626;9.362;2024-02-16T04:00:11;7.60;99.90
5647;DHT22;2845;48.626;9.362;2024-02-16T04:02:46;7.70;99.90
5647;DHT22;2845;48.626;9.362;2024-02-16T04:05:20;7.70;99.90
5647;DHT22;2845;48.626;9.362;2024-02-16T04:07:54;7.70;99.90
5647;DHT22;2845;48.626;9.362;2024-02-16T04:10:30;7.70;99.90
5647;DHT22;2845;48.626;9.362;2024-02-16T04:13:04;7.70;99.90
5647;DHT22;2845;48.626;9.362;2024-02-16T04:15:38;7.70;99.90
5647;DHT22;2845;48.626;9.362;2024-02-16T04:18:12;7.70;99.90
5647;DHT22;2845;48.626;9.362;2024-02-16T04:20:47;7.80;99.90
5647;DHT22;2845;48.626;9.362;2024-02-16T04:23:21;7.70;99.90
5647;DHT22;2845;48.626;9.362;2024-02-16T04:25:57;7.70;99.90
5647;DHT22;2845;48.626;9.362;2024-02-16T04:28:31;7.70;99.90
5647;DHT22;2845;48.626;9.362;2024-02-16T04:31:05;7.70;99.90
5647;DHT22;2845;48.626;9.362;2024-02-16T04:33:39;7.60;99.90
5647;DHT22;2845;48.626;9.362;2024-02-16T04:36:13;7.70;99.90
5647;DHT22;2845;48.626;9.362;2024-02-16T04:38:48;7.60;99.90
5647;DHT22;2845;48.626;9.362;2024-02-16T04:41:24;7.60;99.90
5647;DHT22;2845;48.626;9.362;2024-02-16T04:43:58;7.50;99.90
5647;DHT22;2845;48.626;9.362;2024-02-16T04:46:32;7.50;99.90
5647;DHT22;2845;48.626;9.362;2024-02-16T04:49:06;7.50;99.90
5647;DHT22;2845;48.626;9.362;2024-02-16T04:51:41;7.50;99.90
5647;DHT22;2845;48.626;9.362;2024-02-16T04:54:15;7.60;99.90
5647;DHT22;2845;48.626;9.362;2024-02-16T04:56:50;7.60;99.90
5647;DHT22;2845;48.626;9.362;2024-02-16T04:59:24;7.50;99.90
5647;DHT22;2845;48.626;9.362;2024-02-16T05:01:58;7.50;99.90
5647;DHT22;2845;48.626;9.362;2024-02-16T05:04:32;7.50;99.90
5647;DHT22;2845;48.626;9.362;2024-02-16T05:07:07;7.50;99.90
5647;DHT22;2845;48.626;9.362;2024-02-16T05:09:41;7.50;99.90
5647;DHT22;2845;48.626;9.362;2024-02-16T05:12:17;7.50;99.90
5647;DHT22;2845;48.626;9.362;2024-02-16T05:14:53;7.50;99.90
5647;DHT22;2845;48.626;9.362;2024-02-16T05:17:27;7.40;99.90
5647;DHT22;2845;48.626;9.362;2024-02-16T05:20:01;7.60;99.90
5647;DHT22;2845;48.626;9.362;2024-02-16T05:22:35;7.50;99.90
5647;DHT22;2845;48.626;9.362;2024-02-16T05:25:10;7.50;99.90
5647;DHT22;2845;48.626;9.362;2024-02-16T05:27:46;7.50;99.90
5647;DHT22;2845;48.626;9.362;2024-02-16T05:30:21;7.50;99.90
5647;DHT22;2845;48.626;9.362;2024-02-16T05:32:55;7.40;99.90
5647;DHT22;2845;48.626;9.362;2024-02-16T05:35:31;7.50;99.90
5647;DHT22;2845;48.626;9.362;2024-02-16T05:38:07;7.50;99.90
5647;DHT22;2845;48.626;9.362;2024-02-16T05:40:53;7.50;99.90
5647;DHT22;2845;48.626;9.362;2024-02-16T05:43:31;7.50;99.90
5647;DHT22;2845;48.626;9.362;2024-02-16T05:46:06;7.60;99.90
5647;DHT22;2845;48.626;9.362;2024-02-16T05:48:40;7.50;99.90
5647;DHT22;2845;48.626;9.362;2024-02-16T05:51:14;7.50;99.90
5647;DHT22;2845;48.626;9.362;2024-02-16T05:53:48;7.50;99.90
5647;DHT22;2845;48.626;9.362;2024-02-16T05:56:23;7.60;99.90
5647;DHT22;2845;48.626;9.362;2024-02-16T05:58:59;7.60;99.90
5647;DHT22;2845;48.626;9.362;2024-02-16T06:01:33;7.60;99.90
5647;DHT22;2845;48.626;9.362;2024-02-16T06:04:07;7.60;99.90
5647;DHT22;2845;48.626;9.362;2024-02-16T06:06:41;7.50;99.90
5647;DHT22;2845;48.626;9.362;2024-02-16T06:09:15;7.50;99.90
5647;DHT22;2845;48.626;9.362;2024-02-16T06:11:49;7.50;99.90
5647;DHT22;2845;48.626;9.362;2024-02-16T06:14:25;7.50;99.90
5647;DHT22;2845;48.626;9.362;2024-02-16T06:17:08;11.20;99.90
5647;DHT22;2845;48.626;9.362;2024-02-16T06:19:43;7.40;99.90
5647;DHT22;2845;48.626;9.362;2024-02-16T06:22:17;7.40;99.90
5647;DHT22;2845;48.626;9.362;2024-02-16T06:24:52;7.30;99.90
5647;DHT22;2845;48.626;9.362;2024-02-16T06:27:26;7.40;99.90
5647;DHT22;2845;48.626;9.362;2024-02-16T06:30:03;6.30;99.90
5647;DHT22;2845;48.626;9.362;2024-02-16T06:32:37;7.40;99.90
5647;DHT22;2845;48.626;9.362;2024-02-16T06:35:11;7.40;99.90
5647;DHT22;2845;48.626;9.362;2024-02-16T06:37:46;7.40;99.90
5647;DHT22;2845;48.626;9.362;2024-02-16T06:40:20;7.40;99.90
5647;DHT22;2845;48.626;9.362;2024-02-16T06:42:54;7.30;99.90
5647;DHT22;2845;48.626;9.362;2024-02-16T06:45:30;7.30;99.90
5647;DHT22;2845;48.626;9.362;2024-02-16T06:48:05;7.30;99.90
5647;DHT22;2845;48.626;9.362;2024-02-16T06:50:39;7.40;99.90
5647;DHT22;2845;48.626;9.362;2024-02-16T06:53:14;7.40;99.90
5647;DHT22;2845;48.626;9.362;2024-02-16T06:55:48;7.30;99.90
5647;DHT22;2845;48.626;9.362;2024-02-16T06:58:23;7.40;99.90
5647;DHT22;2845;48.626;9.362;2024-02-16T07:00:58;7.40;99.90
5647;DHT22;2845;48.626;9.362;2024-02-16T07:03:36;7.40;99.90
5647;DHT22;2845;48.626;9.362;2024-02-16T07:06:11;7.40;99.90
5647;DHT22;2845;48.626;9.362;2024-02-16T07:08:46;7.40;99.90
5647;DHT22;2845;48.626;9.362;2024-02-16T07:11:20;7.40;99.90
5647;DHT22;2845;48.626;9.362;2024-02-16T07:13:55;8.90;99.90
5647;DHT22;2845;48.626;9.362;2024-02-16T07:16:30;7.50;99.90
5647;DHT22;2845;48.626;9.362;2024-02-16T07:19:05;8.80;99.90
5647;DHT22;2845;48.626;9.362;2024-02-16T07:21:39;7.60;99.90
5647;DHT22;2845;48.626;9.362;2024-02-16T07:24:13;7.70;99.90
5647;DHT22;2845;48.626;9.362;2024-02-16T07:26:48;7.70;99.90
5647;DHT22;2845;48.626;9.362;2024-02-16T07:29:22;7.80;99.90
5647;DHT22;2845;48.626;9.362;2024-02-16T07:31:57;7.90;99.90
5647;DHT22;2845;48.626;9.362;2024-02-16T07:34:32;8.00;99.90
5647;DHT22;2845;48.626;9.362;2024-02-16T07:37:06;10.00;99.90
5647;DHT22;2845;48.626;9.362;2024-02-16T07:39:41;8.40;99.90
5647;DHT22;2845;48.626;9.362;2024-02-16T07:42:15;8.80;99.90
5647;DHT22;2845;48.626;9.362;2024-02-16T07:44:49;9.00;99.90
5647;DHT22;2845;48.626;9.362;2024-02-16T07:47:26;9.10;99.90
5647;DHT22;2845;48.626;9.362;2024-02-16T07:50:01;9.00;99.90
5647;DHT22;2845;48.626;9.362;2024-02-16T07:52:37;8.90;99.90
5647;DHT22;2845;48.626;9.362;2024-02-16T07:55:12;9.80;99.90
5647;DHT22;2845;48.626;9.362;2024-02-16T07:57:46;8.70;99.90
5647;DHT22;2845;48.626;9.362;2024-02-16T08:00:20;8.60;99.90
5647;DHT22;2845;48.626;9.362;2024-02-16T08:02:56;8.60;99.90
5647;DHT22;2845;48.626;9.362;2024-02-16T08:05:31;8.60;99.90
5647;DHT22;2845;48.626;9.362;2024-02-16T08:08:05;8.50;99.90
5647;DHT22;2845;48.626;9.362;2024-02-16T08:10:39;8.50;99.90
5647;DHT22;2845;48.626;9.362;2024-02-16T08:13:14;9.60;99.90
5647;DHT22;2845;48.626;9.362;2024-02-16T08:15:48;8.60;99.90
5647;DHT22;2845;48.626;9.362;2024-02-16T08:18:26;10.40;99.90
5647;DHT22;2845;48.626;9.362;2024-02-16T08:21:00;8.70;99.90
5647;DHT22;2845;48.626;9.362;2024-02-16T08:23:34;8.90;99.90
5647;DHT22;2845;48.626;9.362;2024-02-16T08:26:10;8.80;99.90
5647;DHT22;2845;48.626;9.362;2024-02-16T08:28:44;8.80;99.90
5647;DHT22;2845;48.626;9.362;2024-02-16T08:31:18;8.80;99.90
5647;DHT22;2845;48.626;9.362;2024-02-16T08:36:29;8.90;99.90
5647;DHT22;2845;48.626;9.362;2024-02-16T08:39:03;9.10;99.90
5647;DHT22;2845;48.626;9.362;2024-02-16T08:41:38;9.20;99.90
5647;DHT22;2845;48.626;9.362;2024-02-16T08:44:12;9.40;99.90
5647;DHT22;2845;48.626;9.362;2024-02-16T08:46:46;10.20;99.90
5647;DHT22;2845;48.626;9.362;2024-02-16T08:49:23;9.50;99.90
5647;DHT22;2845;48.626;9.362;2024-02-16T08:51:57;9.70;99.90
5647;DHT22;2845;48.626;9.362;2024-02-16T08:54:31;11.20;99.90
5647;DHT22;2845;48.626;9.362;2024-02-16T08:57:06;11.30;99.90
5647;DHT22;2845;48.626;9.362;2024-02-16T08:59:40;10.80;99.90
5647;DHT22;2845;48.626;9.362;2024-02-16T09:02:14;10.10;99.40
5647;DHT22;2845;48.626;9.362;2024-02-16T09:04:50;10.00;99.50
5647;DHT22;2845;48.626;9.362;2024-02-16T09:07:24;10.70;99.70
5647;DHT22;2845;48.626;9.362;2024-02-16T09:09:58;12.40;99.90
5647;DHT22;2845;48.626;9.362;2024-02-16T09:12:33;11.20;99.90
5647;DHT22;2845;48.626;9.362;2024-02-16T09:15:08;11.50;99.90
5647;DHT22;2845;48.626;9.362;2024-02-16T09:17:43;9.70;99.80
5647;DHT22;2845;48.626;9.362;2024-02-16T09:20:18;9.80;99.90
5647;DHT22;2845;48.626;9.362;2024-02-16T09:22:55;10.00;99.90
5647;DHT22;2845;48.626;9.362;2024-02-16T09:25:29;10.40;99.80
5647;DHT22;2845;48.626;9.362;2024-02-16T09:28:04;10.70;99.10
5647;DHT22;2845;48.626;9.362;2024-02-16T09:30:42;11.00;98.70
5647;DHT22;2845;48.626;9.362;2024-02-16T09:33:16;11.20;98.40
5647;DHT22;2845;48.626;9.362;2024-02-16T09:35:52;12.80;98.50
5647;DHT22;2845;48.626;9.362;2024-02-16T09:38:26;11.40;97.90
5647;DHT22;2845;48.626;9.362;2024-02-16T09:41:00;11.90;97.80
5647;DHT22;2845;48.626;9.362;2024-02-16T09:43:34;11.50;97.60
5647;DHT22;2845;48.626;9.362;2024-02-16T09:46:09;12.80;97.80
5647;DHT22;2845;48.626;9.362;2024-02-16T09:48:43;11.60;97.20
5647;DHT22;2845;48.626;9.362;2024-02-16T09:51:23;11.80;97.10
5647;DHT22;2845;48.626;9.362;2024-02-16T09:53:57;12.40;97.20
5647;DHT22;2845;48.626;9.362;2024-02-16T09:56:33;12.00;97.10
5647;DHT22;2845;48.626;9.362;2024-02-16T09:59:07;12.20;97.00
5647;DHT22;2845;48.626;9.362;2024-02-16T10:01:41;12.30;96.80
5647;DHT22;2845;48.626;9.362;2024-02-16T10:04:16;12.40;96.80
5647;DHT22;2845;48.626;9.362;2024-02-16T10:06:51;12.50;96.70
5647;DHT22;2845;48.626;9.362;2024-02-16T10:09:26;13.20;96.70
5647;DHT22;2845;48.626;9.362;2024-02-16T10:12:03;12.70;96.50
5647;DHT22;2845;48.626;9.362;2024-02-16T10:14:38;12.80;96.40
5647;DHT22;2845;48.626;9.362;2024-02-16T10:17:16;12.90;96.20
5647;DHT22;2845;48.626;9.362;2024-02-16T10:19:55;13.00;96.00
5647;DHT22;2845;48.626;9.362;2024-02-16T10:22:31;13.20;95.80
5647;DHT22;2845;48.626;9.362;2024-02-16T10:25:20;13.20;95.20
5647;DHT22;2845;48.626;9.362;2024-02-16T10:27:54;13.30;94.80
5647;DHT22;2845;48.626;9.362;2024-02-16T10:30:31;13.30;94.60
5647;DHT22;2845;48.626;9.362;2024-02-16T10:33:09;13.30;94.50
5647;DHT22;2845;48.626;9.362;2024-02-16T10:35:43;13.40;94.30
5647;DHT22;2845;48.626;9.362;2024-02-16T10:38:19;13.40;94.30
5647;DHT22;2845;48.626;9.362;2024-02-16T10:40:56;13.40;94.20
5647;DHT22;2845;48.626;9.362;2024-02-16T10:43:31;13.50;94.10
5647;DHT22;2845;48.626;9.362;2024-02-16T10:46:06;13.60;94.10
5647;DHT22;2845;48.626;9.362;2024-02-16T10:48:41;13.80;93.90
5647;DHT22;2845;48.626;9.362;2024-02-16T10:51:19;13.90;93.70
5647;DHT22;2845;48.626;9.362;2024-02-16T10:54:00;14.10;93.70
5647;DHT22;2845;48.626;9.362;2024-02-16T10:56:35;14.30;93.30
5647;DHT22;2845;48.626;9.362;2024-02-16T10:59:11;14.90;93.10
5647;DHT22;2845;48.626;9.362;2024-02-16T11:01:45;13.30;92.50
5647;DHT22;2845;48.626;9.362;2024-02-16T11:04:21;14.80;92.70
5647;DHT22;2845;48.626;9.362;2024-02-16T11:06:55;14.80;92.40
5647;DHT22;2845;48.626;9.362;2024-02-16T11:09:36;14.90;92.40
5647;DHT22;2845;48.626;9.362;2024-02-16T11:12:13;15.10;92.30
5647;DHT22;2845;48.626;9.362;2024-02-16T11:14:48;15.10;92.30
5647;DHT22;2845;48.626;9.362;2024-02-16T11:17:26;15.40;92.20
5647;DHT22;2845;48.626;9.362;2024-02-16T11:20:00;15.40;92.10
5647;DHT22;2845;48.626;9.362;2024-02-16T11:22:37;15.50;92.00
5647;DHT22;2845;48.626;9.362;2024-02-16T11:25:13;15.50;91.90
5647;DHT22;2845;48.626;9.362;2024-02-16T11:27:47;15.80;92.00
5647;DHT22;2845;48.626;9.362;2024-02-16T11:30:21;16.10;92.00
5647;DHT22;2845;48.626;9.362;2024-02-16T11:32:55;16.30;91.70
5647;DHT22;2845;48.626;9.362;2024-02-16T11:35:30;16.50;91.30
5647;DHT22;2845;48.626;9.362;2024-02-16T11:38:04;16.40;91.30
5647;DHT22;2845;48.626;9.362;2024-02-16T11:40:40;16.80;91.30
5647;DHT22;2845;48.626;9.362;2024-02-16T11:43:20;16.90;91.30
5647;DHT22;2845;48.626;9.362;2024-02-16T11:45:54;17.00;91.10
5647;DHT22;2845;48.626;9.362;2024-02-16T11:48:28;17.40;91.10
5647;DHT22;2845;48.626;9.362;2024-02-16T11:51:05;17.00;91.00
5647;DHT22;2845;48.626;9.362;2024-02-16T11:53:39;17.10;90.90
5647;DHT22;2845;48.626;9.362;2024-02-16T11:56:22;17.10;90.50
5647;DHT22;2845;48.626;9.362;2024-02-16T11:58:57;17.10;90.70
5647;DHT22;2845;48.626;9.362;2024-02-16T12:01:31;17.30;90.60
5647;DHT22;2845;48.626;9.362;2024-02-16T12:04:07;17.30;90.70
5647;DHT22;2845;48.626;9.362;2024-02-16T12:06:41;17.40;90.80
5647;DHT22;2845;48.626;9.362;2024-02-16T12:09:19;17.40;90.60
5647;DHT22;2845;48.626;9.362;2024-02-16T12:11:55;17.50;90.50
5647;DHT22;2845;48.626;9.362;2024-02-16T12:14:29;17.40;90.40
5647;DHT22;2845;48.626;9.362;2024-02-16T12:17:03;17.40;90.50
5647;DHT22;2845;48.626;9.362;2024-02-16T12:19:43;17.30;90.60
5647;DHT22;2845;48.626;9.362;2024-02-16T12:22:19;17.30;90.60
5647;DHT22;2845;48.626;9.362;2024-02-16T12:24:53;17.30;90.50
5647;DHT22;2845;48.626;9.362;2024-02-16T12:27:29;17.30;90.60
5647;DHT22;2845;48.626;9.362;2024-02-16T12:30:03;17.30;90.70
5647;DHT22;2845;48.626;9.362;2024-02-16T12:32:38;17.40;90.60
5647;DHT22;2845;48.626;9.362;2024-02-16T12:35:12;17.50;90.70
5647;DHT22;2845;48.626;9.362;2024-02-16T12:37:48;17.40;90.60
5647;DHT22;2845;48.626;9.362;2024-02-16T12:40:22;17.40;90.90
5647;DHT22;2845;48.626;9.362;2024-02-16T12:42:57;17.40;90.90
5647;DHT22;2845;48.626;9.362;2024-02-16T12:45:31;17.40;90.70
5647;DHT22;2845;48.626;9.362;2024-02-16T12:48:06;17.30;90.80
5647;DHT22;2845;48.626;9.362;2024-02-16T12:50:42;17.20;90.80
5647;DHT22;2845;48.626;9.362;2024-02-16T12:53:16;17.10;90.70
5647;DHT22;2845;48.626;9.362;2024-02-16T12:55:51;17.10;90.90
5647;DHT22;2845;48.626;9.362;2024-02-16T12:58:26;17.00;90.90
5647;DHT22;2845;48.626;9.362;2024-02-16T13:01:02;16.90;91.00
5647;DHT22;2845;48.626;9.362;2024-02-16T13:03:51;16.70;91.10
5647;DHT22;2845;48.626;9.362;2024-02-16T13:06:25;16.70;91.30
5647;DHT22;2845;48.626;9.362;2024-02-16T13:09:04;16.60;91.30
5647;DHT22;2845;48.626;9.362;2024-02-16T13:11:41;16.30;92.00
5647;DHT22;2845;48.626;9.362;2024-02-16T13:14:24;20.70;92.90
5647;DHT22;2845;48.626;9.362;2024-02-16T13:16:59;16.70;91.10
5647;DHT22;2845;48.626;9.362;2024-02-16T13:19:33;18.30;91.60
5647;DHT22;2845;48.626;9.362;2024-02-16T13:22:08;16.70;91.10
5647;DHT22;2845;48.626;9.362;2024-02-16T13:24:42;16.70;91.30
5647;DHT22;2845;48.626;9.362;2024-02-16T13:27:16;16.70;91.30
5647;DHT22;2845;48.626;9.362;2024-02-16T13:29:52;16.70;91.30
5647;DHT22;2845;48.626;9.362;2024-02-16T13:32:26;16.80;91.40
5647;DHT22;2845;48.626;9.362;2024-02-16T13:35:01;16.90;91.40
5647;DHT22;2845;48.626;9.362;2024-02-16T13:37:35;16.90;91.20
5647;DHT22;2845;48.626;9.362;2024-02-16T13:40:11;16.90;91.20
5647;DHT22;2845;48.626;9.362;2024-02-16T13:42:45;16.90;91.20
5647;DHT22;2845;48.626;9.362;2024-02-16T13:45:22;17.00;91.30
5647;DHT22;2845;48.626;9.362;2024-02-16T13:47:59;17.10;91.30
5647;DHT22;2845;48.626;9.362;2024-02-16T13:50:33;17.10;91.30
5647;DHT22;2845;48.626;9.362;2024-02-16T13:53:10;17.10;91.20
5647;DHT22;2845;48.626;9.362;2024-02-16T13:55:45;17.10;91.10
5647;DHT22;2845;48.626;9.362;2024-02-16T13:58:19;17.10;91.00
5647;DHT22;2845;48.626;9.362;2024-02-16T14:00:54;17.20;91.20
5647;DHT22;2845;48.626;9.362;2024-02-16T14:03:29;17.20;91.20
5647;DHT22;2845;48.626;9.362;2024-02-16T14:06:04;17.10;90.80
5647;DHT22;2845;48.626;9.362;2024-02-16T14:08:41;17.00;91.20
5647;DHT22;2845;48.626;9.362;2024-02-16T14:11:15;16.90;91.30
5647;DHT22;2845;48.626;9.362;2024-02-16T14:13:49;16.80;91.40
5647;DHT22;2845;48.626;9.362;2024-02-16T14:16:24;16.70;91.50
5647;DHT22;2845;48.626;9.362;2024-02-16T14:18:58;16.70;91.80
5647;DHT22;2845;48.626;9.362;2024-02-16T14:21:33;15.30;91.50
5647;DHT22;2845;48.626;9.362;2024-02-16T14:24:07;16.60;91.90
5647;DHT22;2845;48.626;9.362;2024-02-16T14:26:43;16.60;91.80
5647;DHT22;2845;48.626;9.362;2024-02-16T14:29:18;16.50;91.90
5647;DHT22;2845;48.626;9.362;2024-02-16T14:31:53;16.50;92.10
5647;DHT22;2845;48.626;9.362;2024-02-16T14:34:28;16.50;92.20
5647;DHT22;2845;48.626;9.362;2024-02-16T14:37:04;16.50;92.20
5647;DHT22;2845;48.626;9.362;2024-02-16T14:39:38;16.50;92.20
5647;DHT22;2845;48.626;9.362;2024-02-16T14:42:12;16.40;92.30
5647;DHT22;2845;48.626;9.362;2024-02-16T14:44:46;16.40;92.30
5647;DHT22;2845;48.626;9.362;2024-02-16T14:47:25;16.40;92.30
5647;DHT22;2845;48.626;9.362;2024-02-16T14:49:59;16.30;92.40
5647;DHT22;2845;48.626;9.362;2024-02-16T14:52:36;16.30;92.50
5647;DHT22;2845;48.626;9.362;2024-02-16T14:55:11;16.30;92.50
5647;DHT22;2845;48.626;9.362;2024-02-16T14:57:47;16.30;92.50
5647;DHT22;2845;48.626;9.362;2024-02-16T15:00:21;16.40;92.60
5647;DHT22;2845;48.626;9.362;2024-02-16T15:02:57;16.40;92.60
5647;DHT22;2845;48.626;9.362;2024-02-16T15:05:31;16.40;92.70
5647;DHT22;2845;48.626;9.362;2024-02-16T15:08:05;16.40;92.70
5647;DHT22;2845;48.626;9.362;2024-02-16T15:10:41;16.40;92.70
5647;DHT22;2845;48.626;9.362;2024-02-16T15:13:16;16.40;92.70
5647;DHT22;2845;48.626;9.362;2024-02-16T15:15:50;16.40;92.70
5647;DHT22;2845;48.626;9.362;2024-02-16T15:18:25;16.50;92.70
5647;DHT22;2845;48.626;9.362;2024-02-16T15:21:00;16.40;92.70
5647;DHT22;2845;48.626;9.362;2024-02-16T15:23:34;16.40;92.80
5647;DHT22;2845;48.626;9.362;2024-02-16T15:26:10;16.30;92.80
5647;DHT22;2845;48.626;9.362;2024-02-16T15:28:44;16.30;92.90
5647;DHT22;2845;48.626;9.362;2024-02-16T15:31:18;16.20;92.90
5647;DHT22;2845;48.626;9.362;2024-02-16T15:33:54;16.10;93.00
5647;DHT22;2845;48.626;9.362;2024-02-16T15:36:28;16.00;93.10
5647;DHT22;2845;48.626;9.362;2024-02-16T15:39:02;16.00;93.30
5647;DHT22;2845;48.626;9.362;2024-02-16T15:41:37;15.80;93.40
5647;DHT22;2845;48.626;9.362;2024-02-16T15:44:11;15.80;93.40
5647;DHT22;2845;48.626;9.362;2024-02-16T15:46:45;15.80;93.20
5647;DHT22;2845;48.626;9.362;2024-02-16T15:49:20;15.80;93.20
5647;DHT22;2845;48.626;9.362;2024-02-16T15:51:55;15.80;93.30
5647;DHT22;2845;48.626;9.362;2024-02-16T15:54:29;15.80;93.30
5647;DHT22;2845;48.626;9.362;2024-02-16T15:57:03;15.70;93.40
5647;DHT22;2845;48.626;9.362;2024-02-16T15:59:38;15.70;93.50
5647;DHT22;2845;48.626;9.362;2024-02-16T16:02:12;15.70;93.60
5647;DHT22;2845;48.626;9.362;2024-02-16T16:04:48;15.60;93.90
5647;DHT22;2845;48.626;9.362;2024-02-16T16:07:22;15.50;94.10
5647;DHT22;2845;48.626;9.362;2024-02-16T16:09:56;15.50;94.30
5647;DHT22;2845;48.626;9.362;2024-02-16T16:12:30;15.30;94.30
5647;DHT22;2845;48.626;9.362;2024-02-16T16:15:05;15.30;94.40
5647;DHT22;2845;48.626;9.362;2024-02-16T16:17:40;15.20;94.30
5647;DHT22;2845;48.626;9.362;2024-02-16T16:20:16;15.20;94.40
5647;DHT22;2845;48.626;9.362;2024-02-16T16:22:50;15.10;94.50
5647;DHT22;2845;48.626;9.362;2024-02-16T16:25:24;15.10;94.50
5647;DHT22;2845;48.626;9.362;2024-02-16T16:27:58;15.10;94.60
5647;DHT22;2845;48.626;9.362;2024-02-16T16:30:32;15.00;94.60
5647;DHT22;2845;48.626;9.362;2024-02-16T16:33:06;15.00;94.70
5647;DHT22;2845;48.626;9.362;2024-02-16T16:35:42;14.90;94.70
5647;DHT22;2845;48.626;9.362;2024-02-16T16:38:16;14.90;94.80
5647;DHT22;2845;48.626;9.362;2024-02-16T16:40:51;14.80;94.90
5647;DHT22;2845;48.626;9.362;2024-02-16T16:43:25;14.80;94.90
5647;DHT22;2845;48.626;9.362;2024-02-16T16:45:59;14.70;94.90
5647;DHT22;2845;48.626;9.362;2024-02-16T16:48:33;14.70;95.00
5647;DHT22;2845;48.626;9.362;2024-02-16T16:51:09;14.60;95.10
5647;DHT22;2845;48.626;9.362;2024-02-16T16:53:43;14.60;95.20
5647;DHT22;2845;48.626;9.362;2024-02-16T16:56:21;14.50;95.10
5647;DHT22;2845;48.626;9.362;2024-02-16T16:58:55;14.50;95.10
5647;DHT22;2845;48.626;9.362;2024-02-16T17:01:29;14.50;95.30
5647;DHT22;2845;48.626;9.362;2024-02-16T17:04:04;14.50;95.40